createdAt,value
2018-11-26T00:00:15.895Z,0
2018-11-26T00:05:17.982Z,0
2018-11-26T00:10:16.766Z,0
2018-11-26T00:15:16.066Z,0
2018-11-26T00:20:16.307Z,0
2018-11-26T00:25:15.694Z,0
2018-11-26T00:30:16.881Z,0
2018-11-26T00:35:16.627Z,0
2018-11-26T00:40:15.333Z,0
2018-11-26T00:45:16.032Z,0
2018-11-26T00:50:15.690Z,0
2018-11-26T00:55:15.934Z,0
2018-11-26T01:00:16.097Z,0
2018-11-26T01:05:20.761Z,0
2018-11-26T01:10:15.562Z,0
2018-11-26T01:15:16.412Z,0
2018-11-26T01:20:15.991Z,0
2018-11-26T01:25:21.587Z,0
2018-11-26T01:30:17.377Z,0
2018-11-26T01:35:15.651Z,0
2018-11-26T01:40:15.655Z,0
2018-11-26T01:45:15.856Z,0
2018-11-26T01:50:16.915Z,0
2018-11-26T01:55:15.481Z,0
2018-11-26T02:00:16.975Z,0
2018-11-26T02:05:17.359Z,0
2018-11-26T02:10:15.933Z,0
2018-11-26T02:15:15.476Z,0
2018-11-26T02:20:19.780Z,0
2018-11-26T02:25:16.187Z,0
2018-11-26T02:30:16.910Z,0
2018-11-26T02:35:15.643Z,0
2018-11-26T02:40:16.253Z,0
2018-11-26T02:45:15.193Z,0
2018-11-26T02:50:17.360Z,0
2018-11-26T02:55:17.461Z,0
2018-11-26T03:00:15.871Z,0
2018-11-26T03:05:17.074Z,0
2018-11-26T03:10:16.283Z,0
2018-11-26T03:15:15.697Z,0
2018-11-26T03:20:20.301Z,0
2018-11-26T03:25:15.666Z,0
2018-11-26T03:30:16.154Z,0
2018-11-26T03:35:15.970Z,0
2018-11-26T03:40:16.648Z,0
2018-11-26T03:45:16.414Z,0
2018-11-26T03:50:16.523Z,0
2018-11-26T03:55:17.500Z,0
2018-11-26T04:00:15.748Z,0
2018-11-26T04:05:22.662Z,0
2018-11-26T04:10:15.834Z,0
2018-11-26T04:15:16.778Z,0
2018-11-26T04:20:16.932Z,0
2018-11-26T04:25:15.677Z,0
2018-11-26T04:30:31.636Z,0
2018-11-26T04:35:16.607Z,0
2018-11-26T04:40:16.283Z,0
2018-11-26T04:45:17.533Z,0
2018-11-26T04:50:20.138Z,0
2018-11-26T04:55:16.009Z,0
2018-11-26T05:00:19.076Z,0
2018-11-26T05:05:18.284Z,0
2018-11-26T05:10:18.790Z,0
2018-11-26T05:15:17.434Z,0
2018-11-26T05:20:15.507Z,0
2018-11-26T05:25:15.517Z,0
2018-11-26T05:30:15.456Z,0
2018-11-26T05:35:16.402Z,0
2018-11-26T05:40:15.502Z,0
2018-11-26T05:45:15.717Z,0
2018-11-26T05:50:16.166Z,0
2018-11-26T05:55:15.143Z,0
2018-11-26T06:00:15.714Z,0
2018-11-26T06:05:15.453Z,0
2018-11-26T06:10:15.417Z,0
2018-11-26T06:15:15.362Z,0
2018-11-26T06:20:15.252Z,0
2018-11-26T06:25:15.592Z,0
2018-11-26T06:30:15.520Z,0
2018-11-26T06:35:15.986Z,0
2018-11-26T06:40:15.186Z,0
2018-11-26T06:45:15.291Z,0
2018-11-26T06:50:17.739Z,0
2018-11-26T06:55:14.838Z,0
2018-11-26T07:00:16.883Z,0
2018-11-26T07:05:15.924Z,0
2018-11-26T07:10:15.205Z,0
2018-11-26T07:15:16.613Z,0
2018-11-26T07:20:15.729Z,0
2018-11-26T07:25:16.824Z,0
2018-11-26T07:30:14.909Z,0.8
2018-11-26T07:35:15.467Z,0.8
2018-11-26T07:40:15.889Z,1.7
2018-11-26T07:45:15.211Z,1.7
2018-11-26T07:50:18.085Z,2.5
2018-11-26T07:55:14.908Z,3.3
2018-11-26T08:00:15.518Z,4.2
2018-11-26T08:05:15.386Z,5.8
2018-11-26T08:10:15.568Z,6.7
2018-11-26T08:15:15.455Z,8.3
2018-11-26T08:20:15.173Z,9.2
2018-11-26T08:25:15.342Z,9.2
2018-11-26T08:30:34.604Z,8.3
2018-11-26T08:35:15.058Z,10
2018-11-26T08:40:16.394Z,13.3
2018-11-26T08:45:16.439Z,15
2018-11-26T08:50:16.047Z,15
2018-11-26T08:55:27.096Z,15.8
2018-11-26T09:00:15.384Z,19.2
2018-11-26T09:15:31.410Z,21.7
2018-11-26T09:20:17.095Z,20
2018-11-26T09:25:17.771Z,21.7
2018-11-26T09:30:16.839Z,19.2
2018-11-26T09:35:16.766Z,18.3
2018-11-26T09:40:16.991Z,20.8
2018-11-26T09:45:16.896Z,23.3
2018-11-26T09:50:17.015Z,23.3
2018-11-26T09:55:16.672Z,24.2
2018-11-26T10:00:17.269Z,25
2018-11-26T10:05:16.887Z,24.2
2018-11-26T10:10:17.606Z,23.3
2018-11-26T10:15:17.029Z,25
2018-11-26T10:20:17.735Z,28.3
2018-11-26T10:25:17.259Z,23.3
2018-11-26T10:30:17.169Z,23.3
2018-11-26T10:35:16.922Z,27.5
2018-11-26T10:40:18.773Z,27.5
2018-11-26T10:45:17.345Z,33.3
2018-11-26T10:50:16.891Z,37.5
2018-11-26T10:55:17.789Z,30.8
2018-11-26T11:00:18.546Z,32.5
2018-11-26T14:15:30.412Z,12.5
2018-11-26T14:20:18.029Z,11.7
2018-11-26T14:25:17.553Z,9.2
2018-11-26T14:30:17.443Z,8.3
2018-11-26T14:35:17.881Z,9.2
2018-11-26T14:40:18.827Z,6.7
2018-11-26T14:45:17.847Z,6.7
2018-11-26T14:50:17.780Z,5
2018-11-26T14:55:19.206Z,4.2
2018-11-26T15:00:18.163Z,3.3
2018-11-26T15:05:17.704Z,2.5
2018-11-26T15:10:19.726Z,1.7
2018-11-26T15:15:17.953Z,1.7
2018-11-26T15:20:17.750Z,0.8
2018-11-26T15:25:17.455Z,0.8
2018-11-26T15:30:18.357Z,0
2018-11-26T15:35:17.892Z,0
2018-11-26T15:40:18.609Z,0
2018-11-26T15:45:17.671Z,0
2018-11-26T15:50:18.081Z,0
2018-11-26T15:55:19.490Z,0
2018-11-26T16:00:17.698Z,0
2018-11-26T16:05:17.443Z,0
2018-11-26T16:10:18.870Z,0
2018-11-26T16:15:18.104Z,0
2018-11-26T16:20:17.563Z,0
2018-11-26T16:25:19.970Z,0
2018-11-26T16:30:17.687Z,0
2018-11-26T16:35:18.190Z,0
2018-11-26T16:40:18.327Z,0
2018-11-26T16:45:17.683Z,0
2018-11-26T16:50:17.629Z,0
2018-11-26T16:55:19.377Z,0
2018-11-26T17:00:17.419Z,0
2018-11-26T17:05:17.592Z,0
2018-11-26T17:10:19.653Z,0
2018-11-26T17:15:17.362Z,0
2018-11-26T17:20:17.746Z,0
2018-11-26T17:25:18.552Z,0
2018-11-26T17:30:17.682Z,0
2018-11-26T17:35:17.501Z,0
2018-11-26T17:40:19.406Z,0
2018-11-26T17:45:18.000Z,0
2018-11-26T17:50:17.820Z,0
2018-11-26T17:55:17.364Z,0
2018-11-26T18:00:17.774Z,0
2018-11-26T18:05:17.626Z,0
2018-11-26T18:10:19.348Z,0
2018-11-26T18:15:18.868Z,0
2018-11-26T18:20:17.386Z,0
2018-11-26T18:25:17.555Z,0
2018-11-26T18:30:18.093Z,0
2018-11-26T18:35:17.694Z,0
2018-11-26T18:40:19.191Z,0
2018-11-26T18:45:17.434Z,0
2018-11-26T18:50:17.211Z,0
2018-11-26T18:55:17.324Z,0
2018-11-26T19:00:17.769Z,0
2018-11-26T19:05:17.855Z,0
2018-11-26T19:10:17.229Z,0
2018-11-26T19:15:17.320Z,0
2018-11-26T19:20:18.161Z,0
2018-11-26T19:25:17.271Z,0
2018-11-26T19:30:17.190Z,0
2018-11-26T19:35:17.450Z,0
2018-11-26T19:40:18.340Z,0
2018-11-26T19:45:17.244Z,0
2018-11-26T19:50:17.477Z,0
2018-11-26T19:55:19.254Z,0
2018-11-26T20:00:17.569Z,0
2018-11-26T20:05:17.462Z,0
2018-11-26T20:10:18.934Z,0
2018-11-26T20:15:18.555Z,0
2018-11-26T20:20:17.661Z,0
2018-11-26T20:25:19.806Z,0
2018-11-26T20:30:17.090Z,0
2018-11-26T20:35:17.429Z,0
2018-11-26T20:40:18.678Z,0
2018-11-26T20:45:18.922Z,0
2018-11-26T20:50:17.477Z,0
2018-11-26T20:55:19.431Z,0
2018-11-26T21:00:18.071Z,0
2018-11-26T21:05:17.276Z,0
2018-11-26T21:10:19.501Z,0
2018-11-26T21:15:17.894Z,0
2018-11-26T21:20:17.387Z,0
2018-11-26T21:25:19.375Z,0
2018-11-26T21:30:17.881Z,0
2018-11-26T21:35:19.495Z,0
2018-11-26T21:40:20.320Z,0
2018-11-26T21:45:17.267Z,0
2018-11-26T21:50:17.461Z,0
2018-11-26T21:55:17.119Z,0
2018-11-26T22:00:17.800Z,0
2018-11-26T22:05:17.253Z,0
2018-11-26T22:10:18.916Z,0
2018-11-26T22:15:17.697Z,0
2018-11-26T22:20:17.254Z,0
2018-11-26T22:25:16.975Z,0
2018-11-26T22:30:16.880Z,0
2018-11-26T22:35:17.037Z,0
2018-11-26T22:40:17.099Z,0
2018-11-26T22:45:16.632Z,0
2018-11-26T22:50:17.258Z,0
2018-11-26T22:55:16.696Z,0
2018-11-26T23:00:17.024Z,0
2018-11-26T23:05:16.900Z,0
2018-11-26T23:10:16.870Z,0
2018-11-26T23:15:16.661Z,0
2018-11-26T23:20:16.904Z,0
2018-11-26T23:25:16.843Z,0
2018-11-26T23:30:17.360Z,0
2018-11-26T23:35:16.924Z,0
2018-11-26T23:40:16.637Z,0
2018-11-26T23:45:16.901Z,0
2018-11-26T23:50:17.340Z,0
2018-11-26T23:55:16.808Z,0
